sensor_id;sensor_type;location;lat;lon;timestamp;temperature;humidity
78345;DHT22;67620;51.134;6.548;2024-01-15T18:02:21;14.10;41.30
78345;DHT22;67620;51.134;6.548;2024-01-15T18:04:47;7.10;54.70
78345;DHT22;67620;51.134;6.548;2024-01-15T18:07:13;4.50;64.00
78345;DHT22;67620;51.134;6.548;2024-01-15T18:09:39;3.20;69.70
78345;DHT22;67620;51.134;6.548;2024-01-15T18:12:05;2.50;73.40
78345;DHT22;67620;51.134;6.548;2024-01-15T18:14:30;1.90;76.40
78345;DHT22;67620;51.134;6.548;2024-01-15T18:16:56;1.60;78.70
78345;DHT22;67620;51.134;6.548;2024-01-15T18:19:22;1.30;80.20
78345;DHT22;67620;51.134;6.548;2024-01-15T18:21:48;1.10;81.40
78345;DHT22;67620;51.134;6.548;2024-01-15T18:24:13;0.90;82.30
78345;DHT22;67620;51.134;6.548;2024-01-15T18:26:39;0.80;82.90
78345;DHT22;67620;51.134;6.548;2024-01-15T18:29:05;0.70;83.70
78345;DHT22;67620;51.134;6.548;2024-01-15T18:31:31;0.60;84.10
78345;DHT22;67620;51.134;6.548;2024-01-15T18:33:56;0.60;84.60
78345;DHT22;67620;51.134;6.548;2024-01-15T18:36:22;0.60;84.90
78345;DHT22;67620;51.134;6.548;2024-01-15T18:38:47;0.60;85.00
78345;DHT22;67620;51.134;6.548;2024-01-15T18:41:20;0.50;85.30
78345;DHT22;67620;51.134;6.548;2024-01-15T18:43:46;0.50;85.80
78345;DHT22;67620;51.134;6.548;2024-01-15T18:46:11;0.40;86.00
78345;DHT22;67620;51.134;6.548;2024-01-15T18:48:36;0.40;86.10
78345;DHT22;67620;51.134;6.548;2024-01-15T18:51:02;0.30;86.30
78345;DHT22;67620;51.134;6.548;2024-01-15T18:53:28;0.20;86.70
78345;DHT22;67620;51.134;6.548;2024-01-15T18:55:53;0.20;87.10
78345;DHT22;67620;51.134;6.548;2024-01-15T18:58:21;0.20;87.10
78345;DHT22;67620;51.134;6.548;2024-01-15T19:00:46;0.10;87.30
78345;DHT22;67620;51.134;6.548;2024-01-15T19:03:12;0.10;87.60
78345;DHT22;67620;51.134;6.548;2024-01-15T19:05:39;0.10;87.70
78345;DHT22;67620;51.134;6.548;2024-01-15T19:08:04;0.10;87.70
78345;DHT22;67620;51.134;6.548;2024-01-15T19:10:30;0.10;87.60
78345;DHT22;67620;51.134;6.548;2024-01-15T19:12:55;0.00;87.70
78345;DHT22;67620;51.134;6.548;2024-01-15T19:15:21;0.00;88.00
78345;DHT22;67620;51.134;6.548;2024-01-15T19:17:46;0.00;87.90
78345;DHT22;67620;51.134;6.548;2024-01-15T19:20:14;0.00;88.20
78345;DHT22;67620;51.134;6.548;2024-01-15T19:22:39;0.00;88.20
78345;DHT22;67620;51.134;6.548;2024-01-15T19:25:05;0.00;88.30
78345;DHT22;67620;51.134;6.548;2024-01-15T19:27:31;0.10;88.20
78345;DHT22;67620;51.134;6.548;2024-01-15T19:29:56;0.10;88.10
78345;DHT22;67620;51.134;6.548;2024-01-15T19:32:22;0.00;88.20
78345;DHT22;67620;51.134;6.548;2024-01-15T19:34:48;0.10;88.30
78345;DHT22;67620;51.134;6.548;2024-01-15T19:37:13;0.10;88.30
78345;DHT22;67620;51.134;6.548;2024-01-15T19:39:39;0.10;88.50
78345;DHT22;67620;51.134;6.548;2024-01-15T19:42:04;0.00;88.50
78345;DHT22;67620;51.134;6.548;2024-01-15T19:44:30;0.00;88.50
78345;DHT22;67620;51.134;6.548;2024-01-15T19:46:56;0.00;88.70
78345;DHT22;67620;51.134;6.548;2024-01-15T19:49:21;0.10;88.80
78345;DHT22;67620;51.134;6.548;2024-01-15T19:51:47;0.20;88.80
78345;DHT22;67620;51.134;6.548;2024-01-15T19:54:13;0.20;88.90
78345;DHT22;67620;51.134;6.548;2024-01-15T19:56:38;0.20;88.90
78345;DHT22;67620;51.134;6.548;2024-01-15T19:59:04;0.20;89.10
78345;DHT22;67620;51.134;6.548;2024-01-15T20:01:34;0.20;89.20
78345;DHT22;67620;51.134;6.548;2024-01-15T20:03:59;0.20;89.20
78345;DHT22;67620;51.134;6.548;2024-01-15T20:06:25;0.30;89.20
78345;DHT22;67620;51.134;6.548;2024-01-15T20:08:50;0.30;89.30
78345;DHT22;67620;51.134;6.548;2024-01-15T20:11:17;0.30;89.40
78345;DHT22;67620;51.134;6.548;2024-01-15T20:13:43;0.20;89.30
78345;DHT22;67620;51.134;6.548;2024-01-15T20:16:10;0.20;89.10
78345;DHT22;67620;51.134;6.548;2024-01-15T20:18:36;0.20;88.90
78345;DHT22;67620;51.134;6.548;2024-01-15T20:21:02;0.20;88.90
78345;DHT22;67620;51.134;6.548;2024-01-15T20:23:29;0.20;88.70
78345;DHT22;67620;51.134;6.548;2024-01-15T20:25:55;0.10;88.80
78345;DHT22;67620;51.134;6.548;2024-01-15T20:28:21;0.10;88.90
78345;DHT22;67620;51.134;6.548;2024-01-15T20:30:47;0.10;88.70
78345;DHT22;67620;51.134;6.548;2024-01-15T20:33:12;0.10;88.60
78345;DHT22;67620;51.134;6.548;2024-01-15T20:35:38;0.00;88.90
78345;DHT22;67620;51.134;6.548;2024-01-15T20:38:03;0.00;89.00
78345;DHT22;67620;51.134;6.548;2024-01-15T20:40:29;0.00;89.00
78345;DHT22;67620;51.134;6.548;2024-01-15T20:42:55;0.00;89.20
78345;DHT22;67620;51.134;6.548;2024-01-15T20:45:20;0.00;89.40
78345;DHT22;67620;51.134;6.548;2024-01-15T20:47:46;0.00;89.40
78345;DHT22;67620;51.134;6.548;2024-01-15T20:50:12;0.00;89.50
78345;DHT22;67620;51.134;6.548;2024-01-15T20:52:37;0.00;89.30
78345;DHT22;67620;51.134;6.548;2024-01-15T20:55:05;0.00;89.30
78345;DHT22;67620;51.134;6.548;2024-01-15T20:57:31;0.00;89.50
78345;DHT22;67620;51.134;6.548;2024-01-15T20:59:57;0.00;89.40
78345;DHT22;67620;51.134;6.548;2024-01-15T21:02:22;0.00;89.50
78345;DHT22;67620;51.134;6.548;2024-01-15T21:04:48;0.00;89.60
78345;DHT22;67620;51.134;6.548;2024-01-15T21:07:13;0.00;89.70
78345;DHT22;67620;51.134;6.548;2024-01-15T21:09:39;0.00;89.80
78345;DHT22;67620;51.134;6.548;2024-01-15T21:12:06;0.10;89.80
78345;DHT22;67620;51.134;6.548;2024-01-15T21:14:32;0.10;89.70
78345;DHT22;67620;51.134;6.548;2024-01-15T21:16:58;0.10;89.70
78345;DHT22;67620;51.134;6.548;2024-01-15T21:19:24;0.10;90.00
78345;DHT22;67620;51.134;6.548;2024-01-15T21:21:49;0.10;90.10
78345;DHT22;67620;51.134;6.548;2024-01-15T21:24:15;0.20;90.20
78345;DHT22;67620;51.134;6.548;2024-01-15T21:26:42;0.30;90.40
78345;DHT22;67620;51.134;6.548;2024-01-15T21:29:08;0.30;90.30
78345;DHT22;67620;51.134;6.548;2024-01-15T21:31:37;0.30;90.40
78345;DHT22;67620;51.134;6.548;2024-01-15T21:34:04;0.30;90.40
78345;DHT22;67620;51.134;6.548;2024-01-15T21:36:29;0.40;90.60
78345;DHT22;67620;51.134;6.548;2024-01-15T21:38:55;0.40;90.50
78345;DHT22;67620;51.134;6.548;2024-01-15T21:41:20;0.40;90.40
78345;DHT22;67620;51.134;6.548;2024-01-15T21:43:46;0.40;90.40
78345;DHT22;67620;51.134;6.548;2024-01-15T21:46:11;0.40;90.30
78345;DHT22;67620;51.134;6.548;2024-01-15T21:48:37;0.50;90.20
78345;DHT22;67620;51.134;6.548;2024-01-15T21:51:03;0.50;90.20
78345;DHT22;67620;51.134;6.548;2024-01-15T21:53:29;0.50;90.10
78345;DHT22;67620;51.134;6.548;2024-01-15T21:55:54;0.50;90.00
78345;DHT22;67620;51.134;6.548;2024-01-15T21:58:20;0.50;90.00
78345;DHT22;67620;51.134;6.548;2024-01-15T22:00:46;0.50;90.00
78345;DHT22;67620;51.134;6.548;2024-01-15T22:03:11;0.50;90.00
78345;DHT22;67620;51.134;6.548;2024-01-15T22:05:37;0.50;89.80
78345;DHT22;67620;51.134;6.548;2024-01-15T22:08:03;0.50;89.80
78345;DHT22;67620;51.134;6.548;2024-01-15T22:10:28;0.50;90.00
78345;DHT22;67620;51.134;6.548;2024-01-15T22:12:54;0.50;90.00
78345;DHT22;67620;51.134;6.548;2024-01-15T22:15:20;0.50;90.00
78345;DHT22;67620;51.134;6.548;2024-01-15T22:17:45;0.50;90.00
78345;DHT22;67620;51.134;6.548;2024-01-15T22:20:11;0.50;89.90
78345;DHT22;67620;51.134;6.548;2024-01-15T22:22:37;0.50;89.80
78345;DHT22;67620;51.134;6.548;2024-01-15T22:25:03;0.60;89.80
78345;DHT22;67620;51.134;6.548;2024-01-15T22:27:29;0.50;90.30
78345;DHT22;67620;51.134;6.548;2024-01-15T22:29:54;0.50;90.70
78345;DHT22;67620;51.134;6.548;2024-01-15T22:32:20;0.50;91.50
78345;DHT22;67620;51.134;6.548;2024-01-15T22:34:45;0.50;92.80
78345;DHT22;67620;51.134;6.548;2024-01-15T22:37:11;0.50;92.80
78345;DHT22;67620;51.134;6.548;2024-01-15T22:39:36;0.50;92.50
78345;DHT22;67620;51.134;6.548;2024-01-15T22:42:02;0.60;92.30
78345;DHT22;67620;51.134;6.548;2024-01-15T22:44:27;0.50;91.50
78345;DHT22;67620;51.134;6.548;2024-01-15T22:46:53;0.60;91.30
78345;DHT22;67620;51.134;6.548;2024-01-15T22:49:18;0.60;90.90
78345;DHT22;67620;51.134;6.548;2024-01-15T22:51:44;0.50;90.70
78345;DHT22;67620;51.134;6.548;2024-01-15T22:54:10;0.60;90.70
78345;DHT22;67620;51.134;6.548;2024-01-15T22:56:35;0.60;90.70
78345;DHT22;67620;51.134;6.548;2024-01-15T22:59:01;0.60;90.50
78345;DHT22;67620;51.134;6.548;2024-01-15T23:01:27;0.60;90.50
78345;DHT22;67620;51.134;6.548;2024-01-15T23:03:54;0.60;90.10
78345;DHT22;67620;51.134;6.548;2024-01-15T23:06:20;0.60;89.90
78345;DHT22;67620;51.134;6.548;2024-01-15T23:08:46;0.60;89.80
78345;DHT22;67620;51.134;6.548;2024-01-15T23:11:12;0.60;89.90
78345;DHT22;67620;51.134;6.548;2024-01-15T23:13:41;0.60;89.70
78345;DHT22;67620;51.134;6.548;2024-01-15T23:16:08;0.70;89.60
78345;DHT22;67620;51.134;6.548;2024-01-15T23:18:38;0.60;89.70
78345;DHT22;67620;51.134;6.548;2024-01-15T23:21:04;0.60;89.80
78345;DHT22;67620;51.134;6.548;2024-01-15T23:23:30;0.60;89.90
78345;DHT22;67620;51.134;6.548;2024-01-15T23:25:55;0.60;89.90
78345;DHT22;67620;51.134;6.548;2024-01-15T23:28:21;0.60;89.80
78345;DHT22;67620;51.134;6.548;2024-01-15T23:30:46;0.60;90.00
78345;DHT22;67620;51.134;6.548;2024-01-15T23:33:12;0.60;90.00
78345;DHT22;67620;51.134;6.548;2024-01-15T23:35:37;0.60;90.10
78345;DHT22;67620;51.134;6.548;2024-01-15T23:38:03;0.60;90.20
78345;DHT22;67620;51.134;6.548;2024-01-15T23:40:29;0.70;90.20
78345;DHT22;67620;51.134;6.548;2024-01-15T23:42:54;0.70;90.20
78345;DHT22;67620;51.134;6.548;2024-01-15T23:45:20;0.70;90.20
78345;DHT22;67620;51.134;6.548;2024-01-15T23:47:45;0.70;90.20
78345;DHT22;67620;51.134;6.548;2024-01-15T23:50:11;0.60;90.20
78345;DHT22;67620;51.134;6.548;2024-01-15T23:52:37;0.70;90.30
78345;DHT22;67620;51.134;6.548;2024-01-15T23:55:03;0.60;90.30
78345;DHT22;67620;51.134;6.548;2024-01-15T23:57:28;0.70;90.30
78345;DHT22;67620;51.134;6.548;2024-01-15T23:59:54;0.60;90.40
